This is the latest recevied weather packets stored in our database for station/object IQ8VX-3. If no packets are shown the sender has not sent any weather packets the latest 10 day(s).
| Time | Temp. | Humidity | Pressure | Rain* | Wind** | Luminosity | Snow |
|---|---|---|---|---|---|---|---|
| 1777185366 | 20.56° C | 73% | 1710.4 hPa | - | - | - | - |
| 1777184166 | 18.33° C | 72% | 1703.6 hPa | - | - | - | - |
| 1777182965 | 19.44° C | 64% | 1707 hPa | - | - | - | - |
| 1777181765 | 25° C | 63% | 1723.3 hPa | - | - | - | - |
| 1777180565 | 16.67° C | 85% | 1699.8 hPa | - | - | - | - |
| 1777179365 | 13.89° C | 94% | 1691.9 hPa | - | - | - | - |
| 1777178164 | 13.89° C | 94% | 1691.3 hPa | - | - | - | - |
| 1777176964 | 13.33° C | 92% | 1691.1 hPa | - | - | - | - |
| 1777175764 | 13.89° C | 92% | 1691.8 hPa | - | - | - | - |
| 1777174563 | 13.89° C | 93% | 1691.8 hPa | - | - | - | - |
| 1777173363 | 13.89° C | 92% | 1692 hPa | - | - | - | - |
| 1777172163 | 14.44° C | 92% | 1692.6 hPa | - | - | - | - |
| 1777170962 | 14.44° C | 91% | 1692.8 hPa | - | - | - | - |
| 1777169762 | 13.89° C | 89% | 1691.2 hPa | - | - | - | - |
| 1777168562 | 14.44° C | 89% | 1693.5 hPa | - | - | - | - |
| 1777167361 | 15° C | 87% | 1694.1 hPa | - | - | - | - |
| 1777166161 | 15° C | 87% | 1694.4 hPa | - | - | - | - |
| 1777164961 | 15° C | 88% | 1694.8 hPa | - | - | - | - |
| 1777163760 | 15° C | 90% | 1694.5 hPa | - | - | - | - |
| 1777162560 | 15° C | 90% | 1694.3 hPa | - | - | - | - |
| 1777161360 | 15° C | 91% | 1694.1 hPa | - | - | - | - |
| 1777160160 | 14.44° C | 91% | 1693.4 hPa | - | - | - | - |
| 1777158959 | 14.44° C | 91% | 1692.7 hPa | - | - | - | - |
| 1777157759 | 14.44° C | 90% | 1692.8 hPa | - | - | - | - |
| 1777156559 | 14.44° C | 91% | 1693.2 hPa | - | - | - | - |
* Rain since midnight (hover to see other rain measurements)
** Current wind speed in m/s (hover to see current wind gust speed)